Terminal Aerodrome Forecast
Issued by NWS

Home | Current Version | Previous Version | Graphics & Text | Print | Product List | Glossary On
Versions: 1 2 3 4 5 6 7 8 9 10 11 12 13 14 15 16 17 18 19 20 21
000
FTUS43 KGRB 272321
TAFAUW
TAF
KAUW 272321Z 2800/2824 26007KT P6SM SCT035 SCT080
     FM280500 VRB03KT P6SM SKC
      TEMPO 2807/2811 2SM BR SCT004
     FM281500 20007KT P6SM SCT070
     FM281800 18012G20KT P6SM SCT060=

USA.gov is the U.S. government's official web portal to all federal, state and local government web resources and services.